Time;durP1;ratioP1;P1;durP2;ratioP2;P2;SDS_P1;SDS_P2;PMS_P1;PMS_P2;Temp;Humidity;BMP_temperature;BMP_pressure;BME280_temperature;BME280_humidity;BME280_pressure;Samples;Min_cycle;Max_cycle;Signal;HPM_P1;HPM_P2
2022/02/26 00:00:13;;;;;;;24.00;10.82;;;;;;;;;;1763757;80;20997;-70
2022/02/26 00:02:40;;;;;;;22.87;10.72;;;;;;;;;;1757626;80;21133;-71
2022/02/26 00:05:07;;;;;;;21.95;10.88;;;;;;;;;;1760365;80;21473;-70
2022/02/26 00:07:33;;;;;;;25.70;10.90;;;;;;;;;;1753139;80;21143;-70
2022/02/26 00:10:01;;;;;;;22.02;11.40;;;;;;;;;;1747185;81;21620;-70
2022/02/26 00:12:29;;;;;;;22.22;12.60;;;;;;;;;;1747467;81;21064;-69
2022/02/26 00:14:55;;;;;;;23.57;10.60;;;;;;;;;;1742751;82;21023;-69
2022/02/26 00:17:21;;;;;;;21.33;10.03;;;;;;;;;;1747840;81;20962;-69
2022/02/26 00:22:09;;;;;;;16.97;8.73;;;;;;;;;;1793799;79;24356;-71
2022/02/26 00:24:36;;;;;;;20.60;10.38;;;;;;;;;;1780796;80;20992;-70
2022/02/26 00:27:02;;;;;;;18.67;9.78;;;;;;;;;;1779363;80;21006;-70
2022/02/26 00:29:28;;;;;;;20.40;9.50;;;;;;;;;;1784742;79;21019;-71
2022/02/26 00:31:55;;;;;;;19.27;10.18;;;;;;;;;;1778850;80;21137;-71
2022/02/26 00:34:21;;;;;;;16.52;8.30;;;;;;;;;;1782317;80;21040;-70
2022/02/26 00:36:47;;;;;;;25.70;12.80;;;;;;;;;;1783617;79;20989;-71
2022/02/26 00:39:13;;;;;;;20.60;10.32;;;;;;;;;;1779732;80;21462;-72
2022/02/26 00:41:39;;;;;;;20.65;10.50;;;;;;;;;;1775341;80;20965;-72
2022/02/26 00:44:05;;;;;;;15.53;9.13;;;;;;;;;;1783887;79;21038;-70
2022/02/26 00:46:36;;;;;;;20.52;10.40;;;;;;;;;;1784735;80;20918;-70
2022/02/26 00:51:45;;;;;;;;;;;;;;;;;;1789555;80;21020;-70
2022/02/26 00:54:15;;;;;;;15.78;9.08;;;;;;;;;;1784505;80;20226;-70
2022/02/26 00:56:42;;;;;;;15.38;8.10;;;;;;;;;;1789693;80;21017;-71
2022/02/26 00:59:11;;;;;;;13.32;8.25;;;;;;;;;;1792793;80;20973;-70
2022/02/26 01:01:39;;;;;;;11.10;6.22;;;;;;;;;;1778006;80;21005;-71
2022/02/26 01:04:06;;;;;;;11.70;6.22;;;;;;;;;;1767920;80;21071;-70
2022/02/26 01:06:33;;;;;;;9.53;6.22;;;;;;;;;;1759861;80;21015;-70
2022/02/26 01:08:59;;;;;;;13.75;6.92;;;;;;;;;;1766435;80;21060;-70
2022/02/26 01:11:25;;;;;;;12.20;6.87;;;;;;;;;;1765223;80;20949;-70
2022/02/26 01:13:51;;;;;;;8.70;5.05;;;;;;;;;;1762391;80;21044;-69
2022/02/26 01:16:17;;;;;;;12.60;5.55;;;;;;;;;;1760521;80;20980;-70
2022/02/26 01:18:43;;;;;;;9.15;5.47;;;;;;;;;;1769478;80;20930;-70
2022/02/26 01:21:09;;;;;;;7.05;4.78;;;;;;;;;;1749406;81;20997;-71
2022/02/26 01:23:35;;;;;;;7.50;5.10;;;;;;;;;;1759170;80;20992;-70
2022/02/26 01:26:00;;;;;;;10.30;5.53;;;;;;;;;;1758768;81;20970;-71
2022/02/26 01:28:27;;;;;;;10.70;5.47;;;;;;;;;;1758258;80;20981;-71
2022/02/26 01:30:53;;;;;;;8.48;5.45;;;;;;;;;;1757030;80;21481;-70
2022/02/26 01:33:19;;;;;;;6.70;4.00;;;;;;;;;;1758389;80;21040;-69
2022/02/26 01:35:45;;;;;;;9.48;5.37;;;;;;;;;;1750360;80;21013;-70
2022/02/26 01:38:14;;;;;;;9.83;5.00;;;;;;;;;;1757954;80;20981;-70
2022/02/26 01:40:40;;;;;;;7.03;4.08;;;;;;;;;;1755109;80;21013;-69
2022/02/26 01:43:05;;;;;;;8.23;4.42;;;;;;;;;;1756908;80;21031;-68
2022/02/26 01:45:32;;;;;;;5.42;3.45;;;;;;;;;;1759904;80;21052;-70
2022/02/26 01:47:58;;;;;;;5.95;3.20;;;;;;;;;;1759816;80;20976;-71
2022/02/26 01:50:24;;;;;;;6.28;3.70;;;;;;;;;;1753702;80;21013;-70
2022/02/26 01:52:50;;;;;;;6.37;3.83;;;;;;;;;;1754244;80;21080;-72
2022/02/26 01:55:16;;;;;;;6.87;4.20;;;;;;;;;;1754235;80;21052;-71
2022/02/26 01:57:42;;;;;;;6.05;3.45;;;;;;;;;;1750187;80;21040;-71
2022/02/26 02:00:10;;;;;;;6.50;3.55;;;;;;;;;;1757509;80;20993;-71
2022/02/26 02:05:15;;;;;;;5.17;3.22;;;;;;;;;;1710064;82;21173;-74
2022/02/26 02:07:41;;;;;;;6.58;3.62;;;;;;;;;;1707380;82;21012;-74
2022/02/26 02:10:08;;;;;;;5.90;3.62;;;;;;;;;;1716547;82;21102;-73
2022/02/26 02:12:35;;;;;;;5.65;3.50;;;;;;;;;;1713943;83;20976;-72
2022/02/26 02:15:00;;;;;;;5.67;3.27;;;;;;;;;;1710089;82;21028;-71
2022/02/26 02:17:27;;;;;;;4.10;2.90;;;;;;;;;;1709034;82;21568;-71
2022/02/26 02:19:53;;;;;;;5.78;3.30;;;;;;;;;;1707397;83;21047;-74
2022/02/26 02:22:21;;;;;;;4.58;3.00;;;;;;;;;;1709172;82;21500;-72
2022/02/26 02:24:48;;;;;;;4.25;2.70;;;;;;;;;;1708001;82;21324;-72
2022/02/26 02:27:16;;;;;;;4.40;3.05;;;;;;;;;;1710062;82;20986;-73
2022/02/26 02:29:43;;;;;;;5.72;3.02;;;;;;;;;;1674485;85;21585;-72
2022/02/26 02:32:08;;;;;;;5.35;3.20;;;;;;;;;;1644253;87;21039;-72
2022/02/26 02:34:36;;;;;;;5.40;3.15;;;;;;;;;;1675023;84;21040;-72
2022/02/26 02:37:02;;;;;;;5.33;3.10;;;;;;;;;;1677568;84;21005;-74
2022/02/26 02:39:28;;;;;;;4.45;3.10;;;;;;;;;;1643086;87;21052;-74
2022/02/26 02:41:54;;;;;;;3.98;2.95;;;;;;;;;;1672042;84;21024;-74
2022/02/26 02:44:20;;;;;;;4.62;2.80;;;;;;;;;;1713921;82;20953;-73
2022/02/26 02:46:47;;;;;;;6.10;3.10;;;;;;;;;;1701497;83;21119;-74
2022/02/26 02:49:13;;;;;;;5.62;2.92;;;;;;;;;;1704326;83;21584;-72
2022/02/26 02:51:40;;;;;;;4.83;2.85;;;;;;;;;;1716708;82;21038;-73
2022/02/26 02:54:06;;;;;;;4.75;3.20;;;;;;;;;;1709526;82;21548;-71
2022/02/26 02:56:32;;;;;;;5.10;3.30;;;;;;;;;;1709529;82;20965;-74
2022/02/26 02:58:58;;;;;;;4.62;3.02;;;;;;;;;;1706947;83;21071;-71
2022/02/26 03:01:26;;;;;;;3.77;2.77;;;;;;;;;;1701540;82;21056;-71
2022/02/26 03:03:52;;;;;;;4.08;2.85;;;;;;;;;;1708461;82;21526;-70
2022/02/26 03:06:18;;;;;;;5.65;2.87;;;;;;;;;;1711118;83;21003;-71
2022/02/26 03:08:46;;;;;;;4.22;2.77;;;;;;;;;;1695112;83;21084;-72
2022/02/26 03:11:12;;;;;;;2.52;1.95;;;;;;;;;;1704711;82;21041;-72
2022/02/26 03:13:41;;;;;;;3.47;2.70;;;;;;;;;;1705510;82;21012;-72
2022/02/26 03:16:05;;;;;;;4.47;3.10;;;;;;;;;;1708123;82;21076;-73
2022/02/26 03:18:34;;;;;;;6.70;3.45;;;;;;;;;;1704154;83;21048;-73
2022/02/26 03:21:00;;;;;;;5.03;3.20;;;;;;;;;;1713921;82;21570;-72
2022/02/26 03:23:26;;;;;;;6.25;3.52;;;;;;;;;;1707606;83;21516;-71
2022/02/26 03:25:52;;;;;;;6.60;3.62;;;;;;;;;;1702704;82;20958;-72
2022/02/26 03:28:18;;;;;;;7.10;3.87;;;;;;;;;;1703718;84;21046;-71
2022/02/26 03:30:44;;;;;;;5.90;3.52;;;;;;;;;;1701248;83;21009;-72
2022/02/26 03:33:11;;;;;;;5.22;3.40;;;;;;;;;;1712610;82;20968;-72
2022/02/26 03:35:43;;;;;;;5.33;3.20;;;;;;;;;;1705357;83;21289;-73
2022/02/26 03:38:06;;;;;;;7.30;4.25;;;;;;;;;;1707096;83;21102;-71
2022/02/26 03:40:33;;;;;;;5.80;3.83;;;;;;;;;;1705967;83;21067;-71
2022/02/26 03:42:58;;;;;;;6.15;3.72;;;;;;;;;;1709728;83;21044;-72
2022/02/26 03:45:24;;;;;;;6.62;3.70;;;;;;;;;;1717056;83;21042;-71
2022/02/26 03:47:52;;;;;;;6.37;3.67;;;;;;;;;;1713975;82;20991;-72
2022/02/26 03:50:18;;;;;;;7.37;4.22;;;;;;;;;;1702040;82;21024;-72
2022/02/26 03:52:44;;;;;;;7.70;4.47;;;;;;;;;;1707182;82;21032;-73
2022/02/26 03:55:11;;;;;;;8.98;5.25;;;;;;;;;;1697717;83;21048;-73
2022/02/26 03:57:38;;;;;;;6.42;4.03;;;;;;;;;;1703177;83;21575;-72
2022/02/26 04:00:04;;;;;;;8.53;4.22;;;;;;;;;;1706714;82;21036;-72
2022/02/26 04:02:34;;;;;;;7.70;4.55;;;;;;;;;;1698052;82;21037;-73
2022/02/26 04:05:00;;;;;;;8.40;4.62;;;;;;;;;;1687119;83;21531;-73
2022/02/26 04:07:26;;;;;;;7.15;4.03;;;;;;;;;;1675954;84;20989;-73
2022/02/26 04:09:53;;;;;;;8.50;5.28;;;;;;;;;;1672894;85;21054;-73
2022/02/26 04:12:19;;;;;;;7.55;4.55;;;;;;;;;;1676482;84;21088;-72
2022/02/26 04:14:45;;;;;;;8.38;5.00;;;;;;;;;;1681857;84;21011;-73
2022/02/26 04:17:11;;;;;;;9.35;5.62;;;;;;;;;;1676408;85;21075;-74
2022/02/26 04:19:37;;;;;;;8.58;4.22;;;;;;;;;;1681814;84;21016;-73
2022/02/26 04:22:04;;;;;;;6.37;4.08;;;;;;;;;;1676223;84;21075;-74
2022/02/26 04:24:29;;;;;;;8.28;4.62;;;;;;;;;;1681250;84;21004;-72
2022/02/26 04:26:56;;;;;;;8.25;4.85;;;;;;;;;;1676247;85;21041;-72
2022/02/26 04:29:21;;;;;;;9.00;4.92;;;;;;;;;;1682431;84;21024;-74
2022/02/26 04:31:47;;;;;;;9.23;5.33;;;;;;;;;;1673004;85;21016;-73
2022/02/26 04:34:13;;;;;;;7.33;4.37;;;;;;;;;;1683045;84;21530;-71
2022/02/26 04:36:39;;;;;;;10.93;4.92;;;;;;;;;;1676324;84;21047;-72
2022/02/26 04:39:05;;;;;;;7.72;4.97;;;;;;;;;;1680967;84;20999;-73
2022/02/26 04:41:31;;;;;;;9.03;5.67;;;;;;;;;;1674823;84;21024;-74
2022/02/26 04:43:57;;;;;;;8.15;4.58;;;;;;;;;;1681634;84;21008;-74
2022/02/26 04:46:23;;;;;;;5.62;3.75;;;;;;;;;;1676557;85;21008;-72
2022/02/26 04:48:49;;;;;;;8.05;4.92;;;;;;;;;;1680535;84;21012;-76
2022/02/26 04:51:15;;;;;;;10.08;5.40;;;;;;;;;;1680375;84;21081;-73
2022/02/26 04:53:41;;;;;;;9.03;5.08;;;;;;;;;;1678917;84;20996;-75
2022/02/26 04:56:07;;;;;;;7.45;4.20;;;;;;;;;;1680104;84;21531;-74
2022/02/26 04:58:33;;;;;;;9.75;5.40;;;;;;;;;;1683494;84;21000;-76
2022/02/26 05:00:59;;;;;;;10.82;5.40;;;;;;;;;;1680117;84;21051;-75
2022/02/26 05:03:25;;;;;;;8.98;5.30;;;;;;;;;;1681250;84;21562;-74
2022/02/26 05:05:52;;;;;;;9.20;5.22;;;;;;;;;;1711484;83;21028;-74
2022/02/26 05:08:19;;;;;;;10.55;5.53;;;;;;;;;;1673967;84;21048;-77
2022/02/26 05:10:45;;;;;;;10.05;5.33;;;;;;;;;;1651440;85;22091;-77
2022/02/26 05:13:12;;;;;;;11.25;5.72;;;;;;;;;;1656985;86;21570;-74
2022/02/26 05:15:38;;;;;;;8.85;5.62;;;;;;;;;;1714252;82;20957;-74
2022/02/26 05:18:04;;;;;;;9.23;6.17;;;;;;;;;;1710148;83;21080;-74
2022/02/26 05:20:31;;;;;;;12.40;5.92;;;;;;;;;;1703639;82;21090;-75
2022/02/26 05:22:57;;;;;;;11.28;6.35;;;;;;;;;;1703919;82;21032;-75
2022/02/26 05:25:23;;;;;;;10.63;5.00;;;;;;;;;;1703867;83;21507;-74
2022/02/26 05:27:51;;;;;;;9.70;5.97;;;;;;;;;;1711137;82;21070;-74
2022/02/26 05:30:17;;;;;;;9.88;5.70;;;;;;;;;;1713946;83;21000;-73
2022/02/26 05:32:43;;;;;;;11.45;6.20;;;;;;;;;;1712635;82;21001;-74
2022/02/26 05:35:08;;;;;;;13.90;6.03;;;;;;;;;;1712509;82;20988;-73
2022/02/26 05:37:34;;;;;;;12.33;6.00;;;;;;;;;;1716110;82;21068;-73
2022/02/26 05:40:00;;;;;;;8.48;4.92;;;;;;;;;;1713425;82;21483;-74
2022/02/26 05:42:26;;;;;;;15.55;6.80;;;;;;;;;;1704845;82;21029;-73
2022/02/26 05:44:52;;;;;;;10.20;5.70;;;;;;;;;;1713182;82;20992;-73
2022/02/26 05:47:18;;;;;;;10.40;6.25;;;;;;;;;;1715712;82;20953;-73
2022/02/26 05:49:44;;;;;;;10.80;6.28;;;;;;;;;;1706654;83;20969;-73
2022/02/26 05:52:10;;;;;;;9.35;4.90;;;;;;;;;;1701919;83;21512;-73
2022/02/26 05:54:37;;;;;;;9.70;6.12;;;;;;;;;;1702984;83;21064;-73
2022/02/26 05:57:03;;;;;;;9.80;5.35;;;;;;;;;;1711826;82;21022;-73
2022/02/26 05:59:30;;;;;;;8.23;5.53;;;;;;;;;;1675519;84;21115;-73
2022/02/26 06:01:56;;;;;;;8.68;4.72;;;;;;;;;;1675078;84;21084;-76
2022/02/26 06:04:22;;;;;;;10.23;5.58;;;;;;;;;;1703910;83;21535;-73
2022/02/26 06:09:26;;;;;;;10.50;6.12;;;;;;;;;;1813303;78;22696;-72
2022/02/26 06:11:52;;;;;;;12.20;6.58;;;;;;;;;;1749978;81;21507;-71
2022/02/26 06:14:18;;;;;;;8.75;5.15;;;;;;;;;;1747825;80;21087;-72
2022/02/26 06:16:46;;;;;;;9.90;4.95;;;;;;;;;;1749890;81;21040;-71
2022/02/26 06:19:12;;;;;;;11.15;5.80;;;;;;;;;;1748531;81;21029;-72
2022/02/26 06:21:38;;;;;;;11.90;5.45;;;;;;;;;;1751176;81;21560;-72
2022/02/26 06:24:04;;;;;;;11.20;6.30;;;;;;;;;;1725639;82;20989;-73
2022/02/26 06:26:32;;;;;;;13.25;6.95;;;;;;;;;;1707347;82;21081;-72
2022/02/26 06:28:58;;;;;;;15.38;7.20;;;;;;;;;;1734671;81;21021;-73
2022/02/26 06:31:24;;;;;;;13.90;6.60;;;;;;;;;;1734359;82;21042;-72
2022/02/26 06:33:49;;;;;;;9.85;6.15;;;;;;;;;;1724197;82;20992;-72
2022/02/26 06:36:15;;;;;;;11.38;6.53;;;;;;;;;;1733230;82;21539;-73
2022/02/26 06:38:41;;;;;;;9.98;5.85;;;;;;;;;;1728312;82;21013;-73
2022/02/26 06:41:11;;;;;;;8.15;5.35;;;;;;;;;;1735927;82;21079;-72
2022/02/26 06:43:37;;;;;;;11.30;5.42;;;;;;;;;;1747329;81;21551;-72
2022/02/26 06:46:05;;;;;;;11.60;5.78;;;;;;;;;;1747175;81;21005;-73
2022/02/26 06:48:30;;;;;;;8.53;5.33;;;;;;;;;;1742266;82;20992;-74
2022/02/26 06:50:57;;;;;;;12.10;6.80;;;;;;;;;;1743243;81;21135;-72
2022/02/26 06:53:23;;;;;;;10.40;5.75;;;;;;;;;;1712961;82;21012;-73
2022/02/26 06:55:49;;;;;;;13.93;6.80;;;;;;;;;;1715307;83;21092;-72
2022/02/26 06:58:15;;;;;;;8.98;5.80;;;;;;;;;;1719321;82;21484;-73
2022/02/26 07:00:41;;;;;;;8.80;5.30;;;;;;;;;;1745429;81;21088;-72
2022/02/26 07:03:07;;;;;;;9.80;5.33;;;;;;;;;;1736068;82;21581;-74
2022/02/26 07:05:33;;;;;;;10.08;5.40;;;;;;;;;;1734798;82;21007;-73
2022/02/26 07:07:59;;;;;;;12.00;5.83;;;;;;;;;;1731125;82;21039;-72
2022/02/26 07:10:25;;;;;;;8.60;5.25;;;;;;;;;;1721681;82;21007;-72
2022/02/26 07:12:51;;;;;;;9.63;4.85;;;;;;;;;;1730755;82;21115;-73
2022/02/26 07:15:17;;;;;;;9.58;4.72;;;;;;;;;;1726708;82;22244;-72
2022/02/26 07:17:43;;;;;;;8.65;5.03;;;;;;;;;;1714817;83;21524;-73
2022/02/26 07:20:10;;;;;;;9.70;5.47;;;;;;;;;;1723994;82;21043;-75
2022/02/26 07:22:37;;;;;;;10.80;5.55;;;;;;;;;;1728835;82;21068;-73
2022/02/26 07:25:03;;;;;;;8.63;5.15;;;;;;;;;;1744109;82;20988;-73
2022/02/26 07:27:29;;;;;;;7.47;4.08;;;;;;;;;;1730480;82;21033;-74
2022/02/26 07:29:55;;;;;;;7.33;4.17;;;;;;;;;;1729238;82;21040;-74
2022/02/26 07:32:21;;;;;;;6.75;3.67;;;;;;;;;;1729832;82;21014;-71
2022/02/26 07:34:49;;;;;;;6.85;3.83;;;;;;;;;;1722690;83;21101;-72
2022/02/26 07:37:15;;;;;;;9.05;3.87;;;;;;;;;;1745304;82;21013;-72
2022/02/26 07:39:41;;;;;;;6.53;3.40;;;;;;;;;;1704781;83;21021;-74
2022/02/26 07:42:07;;;;;;;4.90;3.42;;;;;;;;;;1734658;82;21546;-73
2022/02/26 07:44:33;;;;;;;8.70;4.22;;;;;;;;;;1724466;82;21008;-74
2022/02/26 07:47:00;;;;;;;5.17;3.35;;;;;;;;;;1739661;82;21087;-72
2022/02/26 07:49:26;;;;;;;4.90;3.02;;;;;;;;;;1734088;82;21026;-72
2022/02/26 07:51:52;;;;;;;5.40;3.65;;;;;;;;;;1736044;82;21038;-73
2022/02/26 07:54:18;;;;;;;5.80;3.20;;;;;;;;;;1737075;82;21569;-72
2022/02/26 07:56:45;;;;;;;8.08;3.50;;;;;;;;;;1743751;80;21013;-72
2022/02/26 07:59:11;;;;;;;3.52;2.27;;;;;;;;;;1744557;80;21077;-72
2022/02/26 08:01:39;;;;;;;6.30;2.70;;;;;;;;;;1740045;82;20993;-72
2022/02/26 08:04:07;;;;;;;4.75;2.83;;;;;;;;;;1738031;80;21024;-73
2022/02/26 08:06:33;;;;;;;6.03;3.25;;;;;;;;;;1742043;82;21052;-73
2022/02/26 08:08:59;;;;;;;3.25;2.33;;;;;;;;;;1732465;82;21565;-74
2022/02/26 08:11:29;;;;;;;6.75;2.75;;;;;;;;;;1774856;79;21020;-75
2022/02/26 08:13:54;;;;;;;5.03;3.40;;;;;;;;;;1770355;80;21015;-74
2022/02/26 08:16:20;;;;;;;5.17;2.27;;;;;;;;;;1771304;80;21004;-74
2022/02/26 08:18:47;;;;;;;4.53;2.80;;;;;;;;;;1770026;80;21622;-73
2022/02/26 08:21:13;;;;;;;7.00;3.20;;;;;;;;;;1770335;80;21012;-72
2022/02/26 08:23:40;;;;;;;12.03;5.47;;;;;;;;;;1769596;80;21072;-73
2022/02/26 08:26:08;;;;;;;7.60;3.70;;;;;;;;;;1774740;80;20985;-74
2022/02/26 08:28:34;;;;;;;7.45;3.65;;;;;;;;;;1767288;80;21052;-73
2022/02/26 08:31:00;;;;;;;8.70;4.40;;;;;;;;;;1770153;80;21076;-73
2022/02/26 08:33:26;;;;;;;8.18;4.00;;;;;;;;;;1768881;80;20964;-74
2022/02/26 08:35:53;;;;;;;6.20;2.95;;;;;;;;;;1773088;80;20993;-73
2022/02/26 08:38:19;;;;;;;7.83;3.33;;;;;;;;;;1775625;80;20992;-73
2022/02/26 08:40:45;;;;;;;8.33;3.30;;;;;;;;;;1771033;79;20985;-72
2022/02/26 08:43:13;;;;;;;4.80;2.30;;;;;;;;;;1766300;80;21024;-73
2022/02/26 08:45:42;;;;;;;4.28;2.58;;;;;;;;;;1775197;80;21593;-73
2022/02/26 08:48:06;;;;;;;3.45;2.15;;;;;;;;;;1770241;80;20986;-74
2022/02/26 08:50:34;;;;;;;4.22;2.33;;;;;;;;;;1767719;80;21023;-75
2022/02/26 08:53:00;;;;;;;4.17;2.10;;;;;;;;;;1779375;80;21024;-73
2022/02/26 08:55:26;;;;;;;3.65;2.17;;;;;;;;;;1775392;80;20978;-73
2022/02/26 08:57:52;;;;;;;5.28;2.25;;;;;;;;;;1776990;80;21017;-75
2022/02/26 09:00:18;;;;;;;4.50;1.77;;;;;;;;;;1777178;79;21020;-73
2022/02/26 09:02:44;;;;;;;3.67;1.70;;;;;;;;;;1729905;82;21088;-75
2022/02/26 09:05:10;;;;;;;1.77;1.50;;;;;;;;;;1773083;80;21586;-74
2022/02/26 09:07:36;;;;;;;2.95;2.10;;;;;;;;;;1767776;80;20984;-74
2022/02/26 09:10:02;;;;;;;3.15;2.00;;;;;;;;;;1764896;79;22208;-72
2022/02/26 09:12:29;;;;;;;2.70;1.80;;;;;;;;;;1759599;79;21014;-74
2022/02/26 09:14:55;;;;;;;3.92;2.05;;;;;;;;;;1763261;79;21036;-71
2022/02/26 09:17:21;;;;;;;4.33;2.10;;;;;;;;;;1703864;81;21476;-72
2022/02/26 09:19:47;;;;;;;2.20;1.65;;;;;;;;;;1767194;79;21600;-72
2022/02/26 09:22:13;;;;;;;2.58;1.50;;;;;;;;;;1759737;79;20961;-74
2022/02/26 09:24:41;;;;;;;4.65;2.17;;;;;;;;;;1763092;79;21575;-73
2022/02/26 09:27:07;;;;;;;6.35;2.33;;;;;;;;;;1767748;79;21000;-75
2022/02/26 09:29:32;;;;;;;3.15;1.92;;;;;;;;;;1725542;82;21590;-75
2022/02/26 09:31:58;;;;;;;3.50;2.05;;;;;;;;;;1759039;81;21067;-74
2022/02/26 09:34:24;;;;;;;2.50;1.50;;;;;;;;;;1765428;81;20989;-74
2022/02/26 09:36:53;;;;;;;2.92;1.95;;;;;;;;;;1763215;81;21036;-75
2022/02/26 09:39:19;;;;;;;2.10;1.45;;;;;;;;;;1759828;80;21544;-75
2022/02/26 09:41:46;;;;;;;4.30;2.15;;;;;;;;;;1762800;81;20997;-75
2022/02/26 09:44:14;;;;;;;6.10;2.92;;;;;;;;;;1759354;79;21008;-74
2022/02/26 09:46:42;;;;;;;3.70;2.12;;;;;;;;;;1760057;79;20980;-74
2022/02/26 09:49:07;;;;;;;3.80;1.67;;;;;;;;;;1758599;81;21059;-74
2022/02/26 09:51:37;;;;;;;4.05;2.10;;;;;;;;;;1739509;81;21040;-72
2022/02/26 09:54:03;;;;;;;3.90;1.82;;;;;;;;;;1758158;80;21632;-74
2022/02/26 09:56:29;;;;;;;2.35;1.30;;;;;;;;;;1763536;79;21095;-72
2022/02/26 09:58:58;;;;;;;3.12;1.55;;;;;;;;;;1765686;81;21391;-74
2022/02/26 10:01:24;;;;;;;2.80;1.60;;;;;;;;;;1764683;81;21056;-73
2022/02/26 10:03:53;;;;;;;4.55;2.00;;;;;;;;;;1738846;81;21048;-74
2022/02/26 10:06:19;;;;;;;2.08;1.50;;;;;;;;;;1739595;81;21028;-74
2022/02/26 10:08:46;;;;;;;2.05;1.40;;;;;;;;;;1764302;80;21009;-73
2022/02/26 10:11:26;;;;;;;3.25;1.67;;;;;;;;;;1771693;80;21032;-73
2022/02/26 10:14:05;;;;;;;3.22;1.62;;;;;;;;;;1771641;80;21048;-73
2022/02/26 10:16:45;;;;;;;1.82;1.40;;;;;;;;;;1772255;80;21032;-73
2022/02/26 10:19:11;;;;;;;1.82;1.30;;;;;;;;;;1774505;79;20956;-74
2022/02/26 10:21:41;;;;;;;1.85;1.42;;;;;;;;;;1773169;80;21534;-74
2022/02/26 10:24:07;;;;;;;2.17;1.52;;;;;;;;;;1771064;80;21558;-74
2022/02/26 10:26:34;;;;;;;2.72;1.52;;;;;;;;;;1783276;80;21040;-73
2022/02/26 10:29:09;;;;;;;2.65;1.80;;;;;;;;;;1773396;80;21539;-73
2022/02/26 10:31:46;;;;;;;2.05;1.20;;;;;;;;;;1774171;79;20985;-73
2022/02/26 10:34:31;;;;;;;3.30;1.40;;;;;;;;;;1776064;80;21012;-74
2022/02/26 10:37:13;;;;;;;3.15;1.75;;;;;;;;;;1773731;80;21015;-73
2022/02/26 10:39:41;;;;;;;;;;;;;;;;;;1784043;79;21089;-73
2022/02/26 10:42:07;;;;;;;1.20;1.10;;;;;;;;;;1771725;80;20470;-74
2022/02/26 10:44:34;;;;;;;1.57;1.00;;;;;;;;;;1777165;80;21094;-73
2022/02/26 10:47:07;;;;;;;2.02;1.30;;;;;;;;;;1783422;79;21012;-73
2022/02/26 10:49:33;;;;;;;1.73;1.37;;;;;;;;;;1776696;80;21047;-73
2022/02/26 10:52:00;;;;;;;2.22;1.07;;;;;;;;;;1774572;79;21265;-74
2022/02/26 10:54:27;;;;;;;0.95;0.93;;;;;;;;;;1757363;80;21484;-73
2022/02/26 10:56:54;;;;;;;2.05;1.42;;;;;;;;;;1774132;80;21088;-74
2022/02/26 10:59:29;;;;;;;2.20;1.35;;;;;;;;;;1779375;79;20992;-74
2022/02/26 11:01:59;;;;;;;2.20;1.20;;;;;;;;;;1771894;79;20958;-74
2022/02/26 11:04:25;;;;;;;1.55;1.15;;;;;;;;;;1768116;80;21020;-73
2022/02/26 11:06:51;;;;;;;1.30;1.20;;;;;;;;;;1778301;80;21553;-73
2022/02/26 11:09:17;;;;;;;1.98;1.45;;;;;;;;;;1780339;79;21049;-73
2022/02/26 11:11:43;;;;;;;1.57;1.20;;;;;;;;;;1770706;79;20989;-73
2022/02/26 11:14:09;;;;;;;1.20;1.10;;;;;;;;;;1765916;80;21043;-73
2022/02/26 11:16:36;;;;;;;2.15;1.17;;;;;;;;;;1763557;80;20984;-74
2022/02/26 11:19:04;;;;;;;1.27;1.17;;;;;;;;;;1769805;79;20996;-74
2022/02/26 11:21:31;;;;;;;1.50;1.20;;;;;;;;;;1767271;80;21028;-73
2022/02/26 11:23:57;;;;;;;1.47;1.15;;;;;;;;;;1777971;80;20985;-73
2022/02/26 11:26:25;;;;;;;2.08;1.02;;;;;;;;;;1769776;80;21498;-72
2022/02/26 11:28:51;;;;;;;2.10;1.32;;;;;;;;;;1774499;80;20987;-72
2022/02/26 11:31:19;;;;;;;2.45;1.30;;;;;;;;;;1773243;80;21023;-70
2022/02/26 11:33:45;;;;;;;3.08;1.30;;;;;;;;;;1775410;80;21531;-72
2022/02/26 11:36:11;;;;;;;1.05;0.93;;;;;;;;;;1771117;80;21003;-73
2022/02/26 11:38:38;;;;;;;1.20;1.00;;;;;;;;;;1777839;80;21499;-73
2022/02/26 11:41:22;;;;;;;3.08;1.02;;;;;;;;;;1770354;80;21020;-72
2022/02/26 11:43:52;;;;;;;3.20;1.50;;;;;;;;;;1774644;80;21008;-72
2022/02/26 11:46:23;;;;;;;1.82;0.90;;;;;;;;;;1773894;80;21025;-71
2022/02/26 11:48:49;;;;;;;2.30;1.50;;;;;;;;;;1775704;80;21005;-71
2022/02/26 11:51:15;;;;;;;2.85;1.50;;;;;;;;;;1771812;80;20989;-72
2022/02/26 11:53:42;;;;;;;1.32;1.20;;;;;;;;;;1775606;80;20973;-70
2022/02/26 11:56:09;;;;;;;3.20;1.47;;;;;;;;;;1773091;80;21041;-72
2022/02/26 11:58:35;;;;;;;2.15;1.30;;;;;;;;;;1770974;80;21020;-71
2022/02/26 12:01:03;;;;;;;2.35;1.37;;;;;;;;;;1769453;80;21607;-71
2022/02/26 12:03:49;;;;;;;1.42;1.30;;;;;;;;;;1773189;80;20976;-72
2022/02/26 12:06:17;;;;;;;3.37;1.80;;;;;;;;;;1772809;80;22123;-72
2022/02/26 12:08:49;;;;;;;1.90;1.50;;;;;;;;;;1774806;79;20997;-72
2022/02/26 12:11:22;;;;;;;1.32;1.22;;;;;;;;;;1769750;80;21032;-72
2022/02/26 12:13:54;;;;;;;2.72;1.50;;;;;;;;;;1770740;80;20984;-71
2022/02/26 12:16:22;;;;;;;2.70;1.90;;;;;;;;;;1771203;80;20973;-71
2022/02/26 12:18:50;;;;;;;2.50;1.70;;;;;;;;;;1766344;80;21019;-71
2022/02/26 12:21:18;;;;;;;3.15;1.55;;;;;;;;;;1772571;79;21025;-72
2022/02/26 12:23:45;;;;;;;1.72;1.32;;;;;;;;;;1774677;80;21012;-71
2022/02/26 12:26:11;;;;;;;4.35;1.80;;;;;;;;;;1766552;80;21018;-72
2022/02/26 12:28:38;;;;;;;5.53;1.62;;;;;;;;;;1774027;80;21051;-71
2022/02/26 12:31:07;;;;;;;3.80;1.70;;;;;;;;;;1770198;79;20989;-72
2022/02/26 12:33:45;;;;;;;2.25;1.45;;;;;;;;;;1768862;80;21480;-71
2022/02/26 12:39:10;;;;;;;2.75;1.65;;;;;;;;;;1808478;79;22874;-72
2022/02/26 12:41:37;;;;;;;4.03;1.85;;;;;;;;;;1774253;80;21507;-71
2022/02/26 12:44:03;;;;;;;1.85;1.30;;;;;;;;;;1771229;80;20954;-72
2022/02/26 12:46:31;;;;;;;3.58;1.70;;;;;;;;;;1774584;80;21467;-72
2022/02/26 12:49:00;;;;;;;1.52;1.30;;;;;;;;;;1772465;80;21010;-72
2022/02/26 12:51:30;;;;;;;1.27;1.15;;;;;;;;;;1778507;80;21051;-71
2022/02/26 12:53:56;;;;;;;2.98;1.40;;;;;;;;;;1779541;80;21077;-71
2022/02/26 12:56:30;;;;;;;1.45;0.90;;;;;;;;;;1763882;80;21124;-73
2022/02/26 12:59:12;;;;;;;1.35;1.15;;;;;;;;;;1751536;80;21059;-72
2022/02/26 13:01:39;;;;;;;1.37;1.00;;;;;;;;;;1740215;82;21462;-73
2022/02/26 13:04:12;;;;;;;1.70;1.00;;;;;;;;;;1746769;82;21485;-71
2022/02/26 13:06:39;;;;;;;1.72;1.10;;;;;;;;;;1744171;82;21509;-72
2022/02/26 13:09:07;;;;;;;2.92;1.20;;;;;;;;;;1749980;80;20971;-73
2022/02/26 13:11:33;;;;;;;1.40;1.30;;;;;;;;;;1751660;80;21004;-71
2022/02/26 13:14:04;;;;;;;2.92;1.60;;;;;;;;;;1745875;81;21019;-72
2022/02/26 13:16:32;;;;;;;1.67;1.17;;;;;;;;;;1752849;80;21550;-73
2022/02/26 13:18:58;;;;;;;1.67;1.12;;;;;;;;;;1755080;80;21021;-72
2022/02/26 13:21:24;;;;;;;2.35;1.47;;;;;;;;;;1747280;80;21031;-72
2022/02/26 13:23:50;;;;;;;3.15;1.40;;;;;;;;;;1721384;82;20985;-74
2022/02/26 13:26:26;;;;;;;2.75;1.47;;;;;;;;;;1674973;84;21028;-72
2022/02/26 13:28:54;;;;;;;1.70;1.40;;;;;;;;;;1692420;83;21036;-72
2022/02/26 13:31:22;;;;;;;1.62;1.05;;;;;;;;;;1689199;83;21025;-73
2022/02/26 13:33:49;;;;;;;1.90;1.35;;;;;;;;;;1687922;83;21058;-73
2022/02/26 13:36:15;;;;;;;1.32;1.20;;;;;;;;;;1686569;83;21591;-72
2022/02/26 13:38:42;;;;;;;4.87;1.30;;;;;;;;;;1646120;86;21621;-74
2022/02/26 13:41:11;;;;;;;2.22;1.25;;;;;;;;;;1719589;82;21058;-74
2022/02/26 13:43:37;;;;;;;1.60;1.40;;;;;;;;;;1717233;82;20957;-73
2022/02/26 13:46:03;;;;;;;1.42;1.30;;;;;;;;;;1721545;82;21008;-76
2022/02/26 13:48:29;;;;;;;1.30;1.20;;;;;;;;;;1729421;82;20988;-74
2022/02/26 13:50:57;;;;;;;2.47;1.30;;;;;;;;;;1720663;82;21008;-76
2022/02/26 13:53:23;;;;;;;1.75;1.30;;;;;;;;;;1723840;82;21457;-75
2022/02/26 13:55:50;;;;;;;1.50;1.30;;;;;;;;;;1733307;82;21077;-76
2022/02/26 13:58:18;;;;;;;1.00;0.90;;;;;;;;;;1678478;84;21030;-76
2022/02/26 14:00:44;;;;;;;4.10;1.42;;;;;;;;;;1686324;84;21019;-75
2022/02/26 14:03:12;;;;;;;1.42;1.20;;;;;;;;;;1687908;84;21048;-77
2022/02/26 14:05:38;;;;;;;2.95;1.35;;;;;;;;;;1681814;84;21064;-78
2022/02/26 14:08:05;;;;;;;2.10;1.62;;;;;;;;;;1696270;84;21024;-76
2022/02/26 14:10:37;;;;;;;2.17;1.20;;;;;;;;;;1687730;84;21009;-76
2022/02/26 14:13:05;;;;;;;3.22;1.80;;;;;;;;;;1692630;84;20977;-76
2022/02/26 14:15:31;;;;;;;1.65;1.20;;;;;;;;;;1686527;84;21030;-75
2022/02/26 14:17:57;;;;;;;4.72;1.45;;;;;;;;;;1684260;84;21044;-76
2022/02/26 14:20:25;;;;;;;3.42;1.00;;;;;;;;;;1707296;82;21151;-76
2022/02/26 14:22:51;;;;;;;1.30;1.20;;;;;;;;;;1719822;82;21036;-76
2022/02/26 14:25:17;;;;;;;2.60;1.55;;;;;;;;;;1724397;82;21110;-77
2022/02/26 14:27:44;;;;;;;2.05;1.35;;;;;;;;;;1718346;82;21124;-77
2022/02/26 14:30:12;;;;;;;2.65;1.47;;;;;;;;;;1727329;82;21551;-77
2022/02/26 14:32:38;;;;;;;2.35;1.50;;;;;;;;;;1729721;82;21011;-76
2022/02/26 14:35:05;;;;;;;3.58;1.65;;;;;;;;;;1728203;82;20955;-77
2022/02/26 14:37:31;;;;;;;2.77;1.42;;;;;;;;;;1730338;82;21051;-76
2022/02/26 14:39:57;;;;;;;2.77;1.47;;;;;;;;;;1734849;81;20986;-76
2022/02/26 14:42:24;;;;;;;4.03;1.60;;;;;;;;;;1735509;81;21013;-76
2022/02/26 14:44:50;;;;;;;1.60;1.40;;;;;;;;;;1736310;81;21031;-77
2022/02/26 14:47:16;;;;;;;2.15;1.55;;;;;;;;;;1743438;81;20955;-78
2022/02/26 14:49:42;;;;;;;2.27;1.82;;;;;;;;;;1742025;81;21024;-77
2022/02/26 14:52:08;;;;;;;4.33;1.50;;;;;;;;;;1740865;81;21549;-77